»·PEaware :: N287JB KDEN-KAMA

N287JB :: KDEN-KAMA

FLIGHT INFORMATION

Flight Status: Arrived
Operator: Privately registered:
United States
More flights under this callsign
Pilot: John L. (16055)
Aircraft: Unknown
(VIPJ)
More flights by this aircraft type
Origin: KDEN Denver Intl
United States
Destination: KAMA Amarillo Intl
United States
More flights between these airports :: More routes between these airports
Route: +STAKR3 PYPER KENTO PNH
File this flight plan on PilotEdge
Remarks: EVIC / G
Altitude:
(Current/Filed)
27,000ft
Speed:
(Current/Filed)
400kts
Departed: 12-Aug-17 03:52 PM
Arrived: 12-Aug-17 05:01 PM
Distance/Time
Traveled:
312nm/1:09
Distance/Time
To Go:
Arrived

Flight Plot

Page will automatically refresh every two minutes.

Flight plan parsing failed; only flown route is shown


Map Options




Map Legend


Flown Route
Filed Route
Departure Airport
Arrival Airport
Navaid (VOR, NDB)
Fix

Horizontal Profiles

Position Reports

Time Latitude Longitude Heading Altitude Ground
Speed
12-Aug-17 14:44 39.837883 -104.664666 0 5438ft 0kts
12-Aug-17 14:45 39.837883 -104.664666 0 5438ft 0kts
12-Aug-17 14:46 39.837883 -104.664666 0 5438ft 0kts
12-Aug-17 14:47 39.837883 -104.664666 0 5438ft 0kts
12-Aug-17 14:48 39.837883 -104.664666 0 5438ft 0kts
12-Aug-17 14:49 39.837883 -104.664666 0 5438ft 0kts
12-Aug-17 14:50 39.837883 -104.664666 0 5438ft 0kts
12-Aug-17 14:51 39.837883 -104.664666 0 5438ft 0kts
12-Aug-17 14:52 39.837883 -104.664666 0 5438ft 0kts
12-Aug-17 14:53 39.837883 -104.664666 0 5438ft 0kts
12-Aug-17 14:54 39.837883 -104.664666 0 5438ft 0kts
12-Aug-17 14:55 39.837883 -104.664666 0 5438ft 0kts
12-Aug-17 14:56 39.837883 -104.664666 0 5438ft 0kts
12-Aug-17 14:57 39.837883 -104.664666 0 5438ft 0kts
12-Aug-17 14:58 39.837883 -104.664666 0 5438ft 0kts
12-Aug-17 14:59 39.837883 -104.664666 0 5438ft 0kts
12-Aug-17 15:00 39.837883 -104.664666 0 5438ft 0kts
12-Aug-17 15:01 39.837883 -104.664666 0 5438ft 0kts
12-Aug-17 15:02 39.837883 -104.664666 0 5438ft 0kts
12-Aug-17 15:03 39.837883 -104.664666 0 5438ft 0kts
12-Aug-17 15:04 39.837883 -104.664666 0 5438ft 0kts
12-Aug-17 15:05 39.837883 -104.664666 0 5438ft 0kts
12-Aug-17 15:06 39.837883 -104.664666 0 5438ft 0kts
12-Aug-17 15:07 39.837883 -104.664666 0 5438ft 0kts
12-Aug-17 15:08 39.837883 -104.664666 0 5438ft 0kts
12-Aug-17 15:09 39.837883 -104.664666 0 5438ft 0kts
12-Aug-17 15:10 39.837883 -104.664666 0 5438ft 0kts
12-Aug-17 15:11 39.837883 -104.664666 0 5438ft 0kts
12-Aug-17 15:12 39.837883 -104.664666 0 5438ft 0kts
12-Aug-17 15:13 39.837883 -104.664666 0 5438ft 0kts
12-Aug-17 15:14 39.837883 -104.664666 0 5438ft 0kts
12-Aug-17 15:15 39.837883 -104.664666 0 5438ft 0kts
12-Aug-17 15:16 39.837883 -104.664666 0 5438ft 0kts
12-Aug-17 15:17 39.837883 -104.664666 0 5438ft 0kts
12-Aug-17 15:18 39.837883 -104.664666 0 5438ft 0kts
12-Aug-17 15:19 39.837883 -104.664666 0 5438ft 0kts
12-Aug-17 15:20 39.837883 -104.664666 0 5438ft 0kts
12-Aug-17 15:21 39.837883 -104.664666 0 5438ft 0kts
12-Aug-17 15:22 39.837883 -104.664666 0 5438ft 0kts
12-Aug-17 15:23 39.837883 -104.664666 0 5438ft 0kts
12-Aug-17 15:24 39.837883 -104.664666 0 5438ft 0kts
12-Aug-17 15:25 39.837883 -104.664666 0 5438ft 0kts
12-Aug-17 15:26 39.837883 -104.664666 0 5438ft 0kts
12-Aug-17 15:27 39.837883 -104.664666 0 5438ft 0kts
12-Aug-17 15:28 39.837883 -104.664666 0 5438ft 0kts
12-Aug-17 15:29 39.837883 -104.664666 0 5438ft 0kts
12-Aug-17 15:30 39.837883 -104.664666 0 5438ft 0kts
12-Aug-17 15:31 39.837883 -104.664666 0 5438ft 0kts
12-Aug-17 15:32 39.837883 -104.664666 0 5438ft 0kts
12-Aug-17 15:33 39.837883 -104.664666 0 5438ft 0kts
12-Aug-17 15:34 39.837883 -104.664666 0 5438ft 0kts
12-Aug-17 15:35 39.837883 -104.664666 0 5438ft 0kts
12-Aug-17 15:36 39.837883 -104.664666 0 5438ft 0kts
12-Aug-17 15:37 39.837883 -104.664666 0 5438ft 0kts
12-Aug-17 15:38 39.837883 -104.664666 0 5438ft 0kts
12-Aug-17 15:39 39.837883 -104.664666 0 5438ft 0kts
12-Aug-17 15:40 39.837883 -104.664666 0 5438ft 0kts
12-Aug-17 15:41 39.837883 -104.664666 0 5438ft 0kts
12-Aug-17 15:42 39.837883 -104.664666 0 5438ft 0kts
12-Aug-17 15:43 39.837883 -104.664666 0 5438ft 0kts
12-Aug-17 15:44 39.837883 -104.664666 0 5438ft 0kts
12-Aug-17 15:45 39.837883 -104.664666 0 5438ft 0kts
12-Aug-17 15:46 39.837883 -104.664666 0 5438ft 0kts
12-Aug-17 15:47 39.837883 -104.664666 0 5438ft 0kts
12-Aug-17 15:48 39.837883 -104.664666 0 5438ft 0kts
12-Aug-17 15:49 39.837883 -104.664666 0 5438ft 0kts
12-Aug-17 15:50 39.837883 -104.664666 0 5438ft 0kts
12-Aug-17 15:51 39.837883 -104.664666 0 5438ft 0kts
12-Aug-17 15:52 39.837883 -104.664666 0 5438ft 0kts
12-Aug-17 15:53 39.837883 -104.664666 0 5438ft 0kts
12-Aug-17 15:54 39.838354 -104.664633 10 5438ft 11kts
12-Aug-17 15:55 39.845037 -104.662352 359 5438ft 42kts
12-Aug-17 15:56 39.857741 -104.662168 0 5438ft 42kts
12-Aug-17 15:57 39.865339 -104.662658 287 5438ft 21kts
12-Aug-17 15:58 39.860991 -104.661685 95 5438ft 0kts
12-Aug-17 15:59 39.860991 -104.661685 95 5438ft 0kts
12-Aug-17 16:00 39.860991 -104.661685 95 5438ft 0kts
12-Aug-17 16:02 39.860991 -104.661685 95 5438ft 0kts
12-Aug-17 16:03 39.860991 -104.661685 95 5438ft 0kts
12-Aug-17 16:04 39.860991 -104.661685 95 5438ft 0kts
12-Aug-17 16:05 39.860989 -104.661639 92 5438ft 1kts
12-Aug-17 16:06 39.859699 -104.660044 181 5438ft 19kts
12-Aug-17 16:07 39.830543 -104.661265 173 6386ft 161kts
12-Aug-17 16:08 39.784285 -104.654526 175 9735ft 172kts
12-Aug-17 16:09 39.725681 -104.654663 159 12884ft 199kts
12-Aug-17 16:10 39.684413 -104.615247 150 15618ft 202kts
12-Aug-17 16:11 39.627460 -104.579551 168 17097ft 255kts
12-Aug-17 16:12 39.558583 -104.554920 169 20093ft 257kts
12-Aug-17 16:13 39.487610 -104.539034 175 22203ft 283kts
12-Aug-17 16:14 39.400940 -104.519829 174 23602ft 333kts
12-Aug-17 16:15 39.309756 -104.499212 175 25988ft 336kts
12-Aug-17 16:16 39.215414 -104.478328 176 27340ft 368kts
12-Aug-17 16:17 39.107123 -104.476158 186 27344ft 414kts
12-Aug-17 16:18 38.988950 -104.479576 186 27324ft 431kts
12-Aug-17 16:19 38.878119 -104.480793 186 29261ft 392kts
12-Aug-17 16:20 38.766677 -104.481142 186 29274ft 407kts
12-Aug-17 16:21 38.665724 -104.411995 150 29267ft 441kts
12-Aug-17 16:22 38.559644 -104.333753 156 29225ft 445kts
12-Aug-17 16:23 38.450183 -104.257496 156 29055ft 450kts
12-Aug-17 16:24 38.340640 -104.181412 156 29046ft 450kts
12-Aug-17 16:25 38.231235 -104.105707 156 29047ft 449kts
12-Aug-17 16:26 38.121473 -104.030020 156 29048ft 449kts
12-Aug-17 16:27 38.009834 -103.964091 166 29069ft 442kts
12-Aug-17 16:28 37.901321 -103.886835 156 29081ft 448kts
12-Aug-17 16:29 37.792077 -103.812177 156 29076ft 449kts
12-Aug-17 16:30 37.682668 -103.736989 156 29077ft 449kts
12-Aug-17 16:30 37.591188 -103.674314 156 29078ft 450kts
12-Aug-17 16:32 37.484426 -103.601396 156 29079ft 450kts
12-Aug-17 16:33 37.374916 -103.526802 155 29101ft 447kts
12-Aug-17 16:34 37.266697 -103.453394 156 29103ft 439kts
12-Aug-17 16:35 37.159779 -103.381115 156 29104ft 435kts
12-Aug-17 16:36 37.054558 -103.310193 156 29097ft 432kts
12-Aug-17 16:37 36.949263 -103.239443 156 29098ft 430kts
12-Aug-17 16:37 36.862060 -103.181018 156 29102ft 428kts
12-Aug-17 16:38 36.757129 -103.110916 156 29125ft 427kts
12-Aug-17 16:39 36.660045 -103.024587 147 29129ft 432kts
12-Aug-17 16:40 36.564318 -102.933556 147 29023ft 433kts
12-Aug-17 16:41 36.475193 -102.849020 147 28193ft 392kts
12-Aug-17 16:42 36.418210 -102.795168 146 27103ft 361kts
12-Aug-17 16:43 36.335046 -102.717259 143 23071ft 382kts
12-Aug-17 16:44 36.258941 -102.644945 143 21716ft 308kts
12-Aug-17 16:45 36.190445 -102.580586 143 19732ft 332kts
12-Aug-17 16:46 36.113779 -102.508754 143 18215ft 349kts
12-Aug-17 16:47 36.037743 -102.437656 143 16737ft 339kts
12-Aug-17 16:48 35.963667 -102.368599 143 15251ft 329kts
12-Aug-17 16:49 35.891968 -102.301909 144 13758ft 320kts
12-Aug-17 16:50 35.821912 -102.236905 144 12247ft 311kts
12-Aug-17 16:51 35.754461 -102.174437 143 10979ft 303kts
12-Aug-17 16:52 35.687009 -102.112052 144 10992ft 306kts
12-Aug-17 16:53 35.621475 -102.051635 144 10932ft 268kts
12-Aug-17 16:54 35.566309 -102.000789 144 9235ft 242kts
12-Aug-17 16:55 35.514797 -101.953794 144 7262ft 225kts
12-Aug-17 16:56 35.470951 -101.913647 142 6972ft 174kts
12-Aug-17 16:57 35.432713 -101.878396 142 6991ft 172kts
12-Aug-17 16:58 35.393058 -101.842064 141 6755ft 180kts
12-Aug-17 16:59 35.357204 -101.809567 139 6266ft 149kts
12-Aug-17 17:00 35.321956 -101.776745 143 5041ft 134kts
12-Aug-17 17:01 35.289578 -101.759303 151 5175ft 127kts
12-Aug-17 17:02 35.264073 -101.734645 135 4454ft 105kts
12-Aug-17 17:03 35.242037 -101.710378 134 3965ft 102kts
12-Aug-17 17:04 35.224534 -101.691060 140 3610ft 23kts
12-Aug-17 17:05 35.222188 -101.688507 139 3610ft 7kts
12-Aug-17 17:06 35.221062 -101.688576 224 3610ft 0kts
12-Aug-17 17:07 35.221626 -101.690515 318 3610ft 13kts
12-Aug-17 17:08 35.225487 -101.694836 316 3610ft 24kts
12-Aug-17 17:09 35.226895 -101.700029 226 3610ft 24kts
12-Aug-17 17:10 35.220181 -101.708452 224 3610ft 37kts
12-Aug-17 17:11 35.217143 -101.709261 228 3610ft 1kts
12-Aug-17 17:12 35.217127 -101.709282 225 3610ft 0kts
12-Aug-17 17:13 35.217127 -101.709282 225 3610ft 0kts

Navigation Log

Ident Type
Flight plan parsing failed, navigation log unavailable